Time;durP1;ratioP1;P1;durP2;ratioP2;P2;SDS_P1;SDS_P2;PMS_P1;PMS_P2;Temp;Humidity;BMP_temperature;BMP_pressure;BME280_temperature;BME280_humidity;BME280_pressure;Samples;Min_cycle;Max_cycle;Signal;HPM_P1;HPM_P2
2022/03/17 00:01:22;;;;;;;40.80;29.67;;;7.60;94.00;;;6.40;75.98;97857.47;5012438;28;20853;-79
2022/03/17 00:03:48;;;;;;;40.17;29.80;;;7.50;94.10;;;6.38;76.44;97861.38;5011391;28;20413;-80
2022/03/17 00:06:14;;;;;;;38.40;29.10;;;7.50;94.50;;;6.34;76.41;97854.91;5012671;28;20758;-80
2022/03/17 00:08:41;;;;;;;42.50;30.37;;;7.50;94.20;;;6.36;76.18;97860.75;5012573;28;20409;-79
2022/03/17 00:11:07;;;;;;;35.75;26.73;;;7.50;94.30;;;6.33;76.44;97871.69;5012147;28;20865;-79
2022/03/17 00:13:33;;;;;;;36.63;27.05;;;7.50;94.40;;;6.35;76.61;97862.59;5012574;28;20508;-80
2022/03/17 00:15:59;;;;;;;38.53;27.65;;;7.50;94.30;;;6.36;76.35;97861.56;5012182;28;20439;-80
2022/03/17 00:18:25;;;;;;;35.83;27.30;;;7.50;94.30;;;6.33;76.22;97863.81;5012064;28;20412;-79
2022/03/17 00:20:51;;;;;;;38.95;26.95;;;7.50;94.30;;;6.32;76.49;97862.19;5011885;28;20420;-79
2022/03/17 00:23:18;;;;;;;34.50;25.80;;;7.50;94.30;;;6.32;76.41;97865.63;5018538;23;20438;-73
2022/03/17 00:25:45;;;;;;;39.10;28.42;;;7.50;94.40;;;6.36;76.24;97879.16;4992487;28;20436;-74
2022/03/17 00:28:12;;;;;;;41.25;29.38;;;7.50;94.30;;;6.37;76.17;97883.41;4992597;28;20457;-75
2022/03/17 00:30:38;;;;;;;42.78;30.25;;;7.50;94.20;;;6.35;76.12;97888.88;4992074;28;20398;-76
2022/03/17 00:33:04;;;;;;;34.83;25.92;;;7.50;94.20;;;6.27;76.25;97883.06;4986299;28;20434;-75
2022/03/17 00:35:35;;;;;;;43.03;28.88;;;7.40;94.30;;;6.28;76.33;97871.53;4992391;28;20497;-75
2022/03/17 00:38:02;;;;;;;40.85;29.63;;;7.40;94.40;;;6.23;76.47;97877.44;4992190;28;20419;-75
2022/03/17 00:40:29;;;;;;;43.38;30.25;;;7.40;94.40;;;6.20;76.58;97873.41;4991814;28;20884;-75
2022/03/17 00:42:56;;;;;;;38.92;28.38;;;7.40;94.50;;;6.16;76.62;97881.94;4992207;28;20473;-75
2022/03/17 00:45:23;;;;;;;41.85;30.45;;;7.30;94.40;;;6.15;76.63;97881.13;4992183;28;20395;-75
2022/03/17 00:47:49;;;;;;;38.15;28.20;;;7.20;94.50;;;6.09;76.94;97881.16;4992190;28;20439;-75
2022/03/17 00:50:15;;;;;;;43.33;30.63;;;7.30;94.60;;;6.09;76.74;97879.31;4990836;28;20434;-75
2022/03/17 00:52:41;;;;;;;43.75;30.17;;;7.20;94.50;;;6.03;76.92;97877.53;4989015;28;20457;-75
2022/03/17 00:55:07;;;;;;;44.08;30.52;;;7.20;94.60;;;6.04;76.95;97873.06;4990523;28;20458;-75
2022/03/17 00:57:36;;;;;;;41.40;28.27;;;7.20;94.70;;;6.01;76.97;97873.50;4991957;28;20813;-76
2022/03/17 01:00:05;;;;;;;43.17;30.63;;;7.20;94.70;;;5.99;77.21;97873.72;5006829;28;20792;-75
2022/03/17 01:02:31;;;;;;;41.55;30.83;;;7.20;94.80;;;5.96;77.29;97862.81;4991303;28;20410;-75
2022/03/17 01:04:57;;;;;;;38.67;28.70;;;7.10;94.90;;;5.91;77.35;97860.00;4991658;28;20410;-74
2022/03/17 01:07:24;;;;;;;45.40;30.80;;;7.10;94.90;;;5.90;77.53;97866.28;4991573;28;20481;-75
2022/03/17 01:09:50;;;;;;;39.22;27.88;;;7.00;95.00;;;5.86;77.73;97868.50;4991443;28;20409;-75
2022/03/17 01:12:16;;;;;;;45.37;31.77;;;7.00;95.00;;;5.90;77.59;97874.97;4991299;28;20407;-75
2022/03/17 01:14:42;;;;;;;45.28;31.77;;;7.00;95.00;;;5.86;77.82;97865.06;4991593;28;20398;-75
2022/03/17 01:17:10;;;;;;;41.17;28.58;;;7.00;95.00;;;5.80;77.92;97864.84;4991744;28;20402;-75
2022/03/17 01:19:36;;;;;;;45.63;31.20;;;7.00;95.10;;;5.81;77.85;97874.34;4991463;28;20571;-74
2022/03/17 01:22:03;;;;;;;41.08;29.10;;;7.00;95.10;;;5.79;77.77;97865.88;4990757;28;20414;-74
2022/03/17 01:24:29;;;;;;;41.33;29.58;;;7.00;95.10;;;5.77;77.81;97857.41;4991333;28;20414;-75
2022/03/17 01:26:54;;;;;;;42.80;31.03;;;7.00;95.10;;;5.78;77.86;97861.66;4991522;28;20541;-75
2022/03/17 01:29:20;;;;;;;45.60;31.88;;;7.00;95.20;;;5.79;77.74;97873.75;4991342;28;20411;-75
2022/03/17 01:31:46;;;;;;;44.88;31.38;;;6.90;95.10;;;5.77;77.87;97857.41;4990373;28;20411;-75
2022/03/17 01:34:13;;;;;;;47.70;32.92;;;6.90;95.20;;;5.77;77.93;97857.41;4988336;28;20418;-74
2022/03/17 01:36:39;;;;;;;43.25;30.55;;;6.90;95.10;;;5.73;77.88;97865.91;4990619;28;20406;-75
2022/03/17 01:39:05;;;;;;;44.50;32.00;;;6.90;95.20;;;5.74;77.95;97863.06;4990829;28;20425;-75
2022/03/17 01:41:31;;;;;;;45.03;32.10;;;6.90;95.20;;;5.71;78.10;97854.81;4990825;28;20402;-75
2022/03/17 01:43:57;;;;;;;46.20;31.70;;;6.90;95.20;;;5.71;78.07;97854.81;4991196;28;20415;-75
2022/03/17 01:46:23;;;;;;;46.03;32.25;;;6.90;95.30;;;5.67;78.06;97854.41;4991135;28;20446;-74
2022/03/17 01:48:49;;;;;;;45.07;32.47;;;6.90;95.30;;;5.70;78.13;97864.50;4991208;28;20464;-75
2022/03/17 01:51:16;;;;;;;44.05;31.60;;;6.90;95.30;;;5.68;78.10;97857.84;4989638;28;20845;-75
2022/03/17 01:53:43;;;;;;;49.40;34.33;;;6.90;95.30;;;5.70;77.99;97863.72;4990796;28;20407;-75
2022/03/17 01:56:09;;;;;;;47.03;33.20;;;6.80;95.30;;;5.69;78.02;97864.72;4990979;28;20437;-75
2022/03/17 01:58:35;;;;;;;46.78;32.45;;;6.80;95.30;;;5.65;78.12;97869.56;5005811;28;20522;-74
2022/03/17 02:01:01;;;;;;;45.03;32.67;;;6.80;95.30;;;5.65;78.09;97872.19;4990339;28;20490;-74
2022/03/17 02:03:27;;;;;;;45.05;31.85;;;6.80;95.30;;;5.64;78.23;97869.78;4990908;28;20398;-74
2022/03/17 02:05:54;;;;;;;46.38;32.10;;;6.80;95.30;;;5.64;78.17;97865.31;4990954;28;20402;-73
2022/03/17 02:08:21;;;;;;;45.08;31.98;;;6.80;95.30;;;5.65;78.31;97876.63;4990470;28;20413;-75
2022/03/17 02:13:32;;;;;;;41.58;29.83;;;6.80;95.40;;;5.59;78.49;97873.03;4988914;28;20406;-75
2022/03/17 02:16:01;;;;;;;47.72;32.45;;;6.80;95.50;;;5.60;78.43;97876.47;4990632;28;20413;-75
2022/03/17 02:18:28;;;;;;;46.95;32.17;;;6.80;95.50;;;5.62;78.59;97875.25;4990620;28;20407;-75
2022/03/17 02:20:57;;;;;;;52.72;35.88;;;6.80;95.60;;;5.65;78.58;97876.63;5005305;28;20418;-75
2022/03/17 02:26:09;;;;;;;46.55;33.30;;;6.80;95.60;;;5.64;78.70;97875.81;4990746;28;20811;-75
2022/03/17 02:28:35;;;;;;;43.97;30.90;;;6.80;95.60;;;5.63;78.47;97873.44;4985504;28;20407;-75
2022/03/17 02:31:02;;;;;;;42.63;30.05;;;6.80;95.50;;;5.66;78.57;97876.44;4988491;28;20477;-75
2022/03/17 02:33:28;;;;;;;48.77;35.23;;;6.80;95.60;;;5.68;78.48;97878.84;4990629;28;20461;-74
2022/03/17 02:35:54;;;;;;;47.53;32.67;;;6.80;95.50;;;5.69;78.59;97880.47;4990391;28;20884;-74
2022/03/17 02:38:21;;;;;;;42.42;30.23;;;6.80;95.60;;;5.67;78.60;97879.88;4990449;28;20423;-73
2022/03/17 02:40:52;;;;;;;52.30;34.13;;;6.80;95.60;;;5.71;78.38;97878.47;4990138;28;20502;-75
2022/03/17 02:43:19;;;;;;;46.10;33.07;;;6.90;95.50;;;5.71;78.42;97886.34;5005893;28;20495;-75
2022/03/17 02:45:46;;;;;;;49.03;34.40;;;6.90;95.60;;;5.72;78.61;97890.56;4991965;28;20457;-75
2022/03/17 02:48:12;;;;;;;44.67;31.20;;;6.90;95.60;;;5.71;78.61;97881.09;4990607;28;20406;-75
2022/03/17 02:50:39;;;;;;;51.25;35.60;;;6.90;95.70;;;5.73;78.59;97881.66;4992167;28;20505;-75
2022/03/17 02:53:05;;;;;;;42.95;31.33;;;6.80;95.60;;;5.69;78.63;97886.53;4995447;28;20410;-74
2022/03/17 02:55:32;;;;;;;41.90;30.45;;;6.90;95.60;;;5.69;78.79;97883.91;4992564;28;20417;-75
2022/03/17 02:57:59;;;;;;;49.28;34.00;;;6.90;95.70;;;5.73;78.62;97884.28;4990333;28;20434;-75
2022/03/17 03:00:25;;;;;;;50.63;33.40;;;6.90;95.70;;;5.74;78.81;97889.34;4989885;28;20488;-75
2022/03/17 03:02:51;;;;;;;48.30;33.37;;;6.90;95.70;;;5.74;78.88;97881.47;4990446;28;20476;-76
2022/03/17 03:05:17;;;;;;;46.13;32.95;;;6.90;95.70;;;5.75;78.94;97890.16;4990383;28;20415;-75
2022/03/17 03:07:43;;;;;;;45.90;32.45;;;6.90;95.70;;;5.76;78.73;97882.06;4990289;28;20417;-74
2022/03/17 03:10:09;;;;;;;44.42;32.20;;;6.90;95.70;;;5.77;79.03;97894.19;4989384;28;20815;-75
2022/03/17 03:12:48;;;;;;;51.53;34.85;;;7.00;95.80;;;5.81;79.01;97894.56;4981963;28;20430;-76
2022/03/17 03:15:15;;;;;;;49.53;34.08;;;7.00;95.70;;;5.83;78.85;97888.09;4993133;28;20406;-76
2022/03/17 03:17:41;;;;;;;48.72;34.30;;;7.00;95.70;;;5.82;78.89;97891.75;4993751;28;20900;-75
2022/03/17 03:20:09;;;;;;;49.72;35.00;;;7.00;95.70;;;5.83;78.83;97884.66;5008465;28;20487;-75
2022/03/17 03:22:39;;;;;;;54.63;38.08;;;7.00;95.70;;;5.86;78.58;97886.06;5008518;28;20419;-75
2022/03/17 03:25:07;;;;;;;51.75;34.70;;;7.00;96.00;;;5.86;78.78;97886.06;5008956;28;20430;-75
2022/03/17 03:27:33;;;;;;;50.33;36.45;;;7.00;95.70;;;5.87;78.69;97882.41;4993706;28;20410;-75
2022/03/17 03:30:00;;;;;;;52.00;36.70;;;7.00;95.70;;;5.89;78.66;97885.69;4993599;28;20406;-75
2022/03/17 03:32:28;;;;;;;56.10;38.83;;;7.00;95.70;;;5.91;78.32;97894.16;4993245;28;20765;-75
2022/03/17 03:34:54;;;;;;;51.42;35.95;;;7.00;95.50;;;5.91;78.43;97894.16;4993520;28;20445;-75
2022/03/17 03:37:23;;;;;;;51.17;36.43;;;7.00;95.50;;;5.92;78.22;97891.34;4993584;28;20904;-75
2022/03/17 03:39:51;;;;;;;47.15;32.67;;;7.10;95.50;;;5.94;78.35;97899.78;4993374;28;20429;-75
2022/03/17 03:42:17;;;;;;;50.60;36.28;;;7.10;95.50;;;5.96;78.15;97900.41;4993076;28;20460;-75
2022/03/17 03:44:43;;;;;;;46.88;33.05;;;7.10;95.40;;;5.98;78.25;97902.81;4993419;28;20409;-75
2022/03/17 03:47:09;;;;;;;48.15;33.13;;;7.10;95.40;;;5.99;78.18;97897.38;4993307;28;20418;-74
2022/03/17 03:49:40;;;;;;;50.03;35.50;;;7.20;95.40;;;6.03;77.97;97908.25;4993255;28;20399;-75
2022/03/17 03:52:08;;;;;;;50.28;35.53;;;7.20;95.30;;;6.02;77.88;97907.44;4992879;28;20465;-74
2022/03/17 03:54:35;;;;;;;58.22;39.47;;;7.10;95.20;;;6.04;77.59;97907.22;4993344;28;20461;-74
2022/03/17 03:57:01;;;;;;;58.17;39.13;;;7.20;94.90;;;6.06;77.30;97915.72;4993238;28;20877;-74
2022/03/17 03:59:29;;;;;;;54.93;36.50;;;7.20;94.90;;;6.06;77.13;97913.09;4993016;28;20795;-76
2022/03/17 04:01:57;;;;;;;53.30;36.67;;;7.20;94.90;;;6.09;77.22;97912.69;4992495;28;20410;-74
2022/03/17 04:04:24;;;;;;;54.63;37.42;;;7.20;94.90;;;6.10;77.10;97914.28;4992926;28;20406;-75
2022/03/17 04:06:53;;;;;;;53.05;36.67;;;7.20;94.80;;;6.11;77.19;97921.16;4993035;28;20403;-74
2022/03/17 04:09:23;;;;;;;50.60;35.42;;;7.20;94.80;;;6.10;76.99;97920.34;4992872;28;20399;-74
2022/03/17 04:11:50;;;;;;;44.85;32.42;;;7.30;94.80;;;6.10;77.09;97922.97;4992612;28;20398;-74
2022/03/17 04:14:16;;;;;;;53.25;37.22;;;7.20;94.80;;;6.11;77.15;97923.78;4992841;28;20407;-74
2022/03/17 04:16:43;;;;;;;49.58;34.30;;;7.20;94.80;;;6.07;77.30;97925.22;4992747;28;20421;-75
2022/03/17 04:19:09;;;;;;;48.05;32.95;;;7.20;94.80;;;6.05;77.28;97930.69;4992656;28;20454;-75
2022/03/17 04:21:35;;;;;;;45.92;31.13;;;7.20;94.90;;;6.05;77.35;97937.75;4992280;28;20445;-75
2022/03/17 04:24:03;;;;;;;50.55;34.60;;;7.20;94.90;;;6.05;77.60;97940.38;4992524;28;20430;-75
2022/03/17 04:26:29;;;;;;;50.67;33.90;;;7.20;94.90;;;6.04;77.37;97938.78;4992589;28;20839;-75
2022/03/17 04:28:55;;;;;;;47.03;32.75;;;7.20;94.90;;;6.02;77.50;97944.22;4992540;28;20411;-75
2022/03/17 04:31:21;;;;;;;48.28;34.67;;;7.20;95.00;;;6.01;77.58;97941.84;4992237;28;20415;-76
2022/03/17 04:33:47;;;;;;;52.92;35.28;;;7.10;95.00;;;5.97;77.81;97949.31;4992468;28;21074;-75
2022/03/17 04:36:13;;;;;;;50.80;34.33;;;7.10;95.10;;;5.96;77.87;97946.88;4992635;28;20421;-76
2022/03/17 04:38:39;;;;;;;53.80;36.35;;;7.10;95.10;;;5.94;78.01;97957.59;4992268;28;20414;-75
2022/03/17 04:41:08;;;;;;;45.63;32.08;;;7.10;95.20;;;5.92;78.05;97961.47;4991851;28;20406;-75
2022/03/17 04:43:34;;;;;;;55.55;36.88;;;7.10;95.30;;;5.90;78.10;97956.41;4992305;28;20403;-75
2022/03/17 04:46:00;;;;;;;54.88;36.50;;;7.00;95.30;;;5.90;78.41;97958.22;4992104;28;20476;-76
2022/03/17 04:48:26;;;;;;;55.92;38.35;;;7.00;95.40;;;5.90;78.21;97960.84;4992239;28;20409;-75
2022/03/17 04:50:52;;;;;;;54.97;37.37;;;7.00;95.40;;;5.88;78.11;97961.06;4991724;28;20440;-75
2022/03/17 04:53:27;;;;;;;50.63;34.53;;;7.00;95.40;;;5.89;78.28;97967.13;4992070;28;20411;-74
2022/03/17 04:55:54;;;;;;;49.08;34.00;;;7.00;95.40;;;5.88;78.18;97970.75;4992108;28;20970;-74
2022/03/17 04:58:21;;;;;;;53.90;37.38;;;7.00;95.40;;;5.89;78.42;97967.94;4991945;28;20795;-74
2022/03/17 05:00:48;;;;;;;54.63;37.65;;;7.00;95.50;;;5.87;78.58;97975.16;4991581;28;20459;-73
2022/03/17 05:03:14;;;;;;;54.73;37.07;;;7.00;95.50;;;5.87;78.53;97967.28;4990583;28;20827;-74
2022/03/17 05:05:40;;;;;;;51.33;34.90;;;7.00;95.50;;;5.87;78.72;97966.47;4992452;28;20494;-73
2022/03/17 05:08:07;;;;;;;48.38;33.13;;;7.00;95.60;;;5.86;78.69;97978.84;4993161;28;20468;-72
2022/03/17 05:10:35;;;;;;;52.08;35.33;;;7.00;95.60;;;5.88;78.76;97976.81;4991175;28;20406;-74
2022/03/17 05:13:03;;;;;;;57.83;37.60;;;7.00;95.70;;;5.89;78.24;97988.13;4992741;28;20494;-75
2022/03/17 05:15:30;;;;;;;52.45;37.20;;;7.00;95.50;;;5.86;78.38;97985.91;4993921;28;20558;-74
2022/03/17 05:18:02;;;;;;;53.10;36.67;;;7.00;95.50;;;5.87;78.52;97990.13;4988068;28;20413;-75
2022/03/17 05:20:29;;;;;;;50.03;35.40;;;7.00;95.60;;;5.83;78.52;97987.94;4989879;28;20432;-74
2022/03/17 05:22:55;;;;;;;47.88;33.25;;;7.00;95.60;;;5.82;78.73;97990.75;4991092;28;20780;-74
2022/03/17 05:25:21;;;;;;;48.10;32.90;;;7.00;95.60;;;5.82;78.77;97983.69;4995143;28;20412;-75
2022/03/17 05:27:49;;;;;;;43.72;31.25;;;7.00;95.60;;;5.82;78.86;97985.50;4997934;28;20412;-76
2022/03/17 05:30:17;;;;;;;47.17;33.07;;;7.00;95.70;;;5.83;78.65;97998.44;4996120;28;20417;-74
2022/03/17 05:32:46;;;;;;;50.30;34.55;;;7.00;95.70;;;5.84;78.71;97996.63;4990049;28;20925;-73
2022/03/17 05:35:14;;;;;;;51.72;35.63;;;7.00;95.60;;;5.83;78.60;97992.38;4994480;28;20424;-74
2022/03/17 05:37:40;;;;;;;48.95;33.83;;;7.00;95.60;;;5.82;78.81;98002.06;4998724;28;20406;-73
2022/03/17 05:40:10;;;;;;;46.50;32.22;;;7.00;95.70;;;5.82;78.77;97993.38;4995307;28;20492;-73
2022/03/17 05:42:37;;;;;;;52.50;36.25;;;7.00;95.70;;;5.82;78.90;97996.81;4989045;28;20940;-73
2022/03/17 05:45:03;;;;;;;49.65;33.38;;;7.00;95.70;;;5.82;78.91;98006.50;4996253;28;20912;-73
2022/03/17 05:47:35;;;;;;;50.45;35.70;;;7.00;95.70;;;5.83;78.94;98011.56;4995680;28;20452;-74
2022/03/17 05:50:06;;;;;;;51.42;35.50;;;7.00;95.70;;;5.86;78.61;98004.31;4996344;28;20428;-74
2022/03/17 05:52:32;;;;;;;56.88;36.75;;;7.00;95.70;;;5.89;78.38;98014.41;4994574;28;20409;-73
2022/03/17 05:54:58;;;;;;;59.90;39.43;;;7.00;95.60;;;5.90;78.16;98013.41;4988217;28;20463;-72
2022/03/17 05:57:24;;;;;;;59.30;38.97;;;7.00;95.40;;;5.91;77.86;98001.88;4994033;28;20412;-74
2022/03/17 05:59:50;;;;;;;53.80;36.95;;;7.00;95.60;;;5.91;78.04;98015.84;4988104;28;20783;-74
2022/03/17 06:02:16;;;;;;;51.90;35.50;;;7.10;95.40;;;5.94;78.03;98017.25;4982157;28;20435;-75
2022/03/17 06:04:42;;;;;;;48.97;34.27;;;7.10;95.40;;;5.96;78.13;98013.38;4998565;28;20411;-75
2022/03/17 06:07:10;;;;;;;45.08;31.23;;;7.10;95.40;;;5.98;78.12;98011.38;5004954;28;20575;-77
2022/03/17 06:09:38;;;;;;;47.00;33.00;;;7.10;95.30;;;6.01;78.04;98010.16;4985458;28;20447;-73
2022/03/17 06:12:06;;;;;;;42.28;29.48;;;7.20;95.30;;;6.04;78.05;98007.09;4987671;28;21182;-74
2022/03/17 06:14:32;;;;;;;51.95;34.70;;;7.20;95.40;;;6.06;77.98;98010.34;4987024;28;20426;-74
2022/03/17 06:16:59;;;;;;;42.78;30.25;;;7.20;95.30;;;6.09;77.88;98018.59;4988534;28;20445;-74
2022/03/17 06:19:25;;;;;;;45.80;31.65;;;7.20;95.40;;;6.14;77.92;98023.25;4987496;28;20816;-74
2022/03/17 06:21:50;;;;;;;45.20;32.47;;;7.30;95.30;;;6.17;77.62;98026.25;4984852;28;20500;-74
2022/03/17 06:24:18;;;;;;;54.20;37.20;;;7.30;95.20;;;6.14;77.51;98024.06;5016890;22;20943;-84
2022/03/17 06:26:44;;;;;;;56.88;38.58;;;7.30;95.10;;;6.13;77.34;98013.75;5022902;28;20428;-84
2022/03/17 06:29:10;;;;;;;53.72;35.80;;;7.30;94.90;;;6.20;77.34;98025.03;5018001;28;20432;-84
2022/03/17 06:31:39;;;;;;;47.03;32.17;;;7.30;94.90;;;6.22;77.54;98028.28;5021505;28;20412;-84
2022/03/17 06:34:06;;;;;;;46.75;32.83;;;7.30;95.00;;;6.26;77.31;98026.84;5015423;28;20409;-84
2022/03/17 06:36:32;;;;;;;47.50;33.00;;;7.40;95.00;;;6.32;77.24;98036.53;5005212;28;20425;-84
2022/03/17 06:38:58;;;;;;;49.55;33.72;;;7.40;94.90;;;6.35;77.00;98030.06;5005240;28;20402;-83
2022/03/17 06:41:25;;;;;;;44.13;31.00;;;7.40;94.70;;;6.41;76.84;98043.16;5009835;28;20767;-83
2022/03/17 06:43:51;;;;;;;45.28;32.05;;;7.50;94.80;;;6.45;76.93;98051.47;5011695;28;20412;-83
2022/03/17 06:46:17;;;;;;;49.35;32.67;;;7.50;94.70;;;6.51;76.68;98056.69;5010872;28;20427;-84
2022/03/17 06:48:43;;;;;;;48.03;32.72;;;7.60;94.60;;;6.53;76.35;98059.94;5030506;28;20416;-84
2022/03/17 06:51:09;;;;;;;46.25;32.30;;;7.70;94.50;;;6.57;76.30;98070.81;5016505;28;20782;-82
2022/03/17 06:53:35;;;;;;;50.50;34.58;;;7.70;94.40;;;6.59;76.11;98071.44;5014071;28;20444;-81
2022/03/17 06:56:01;;;;;;;43.63;30.80;;;7.70;94.30;;;6.63;76.33;98088.41;5014007;28;20463;-83
2022/03/17 06:58:28;;;;;;;38.83;28.17;;;7.70;94.40;;;6.67;76.29;98086.19;5014236;28;20401;-81
2022/03/17 07:00:54;;;;;;;40.47;29.17;;;7.70;94.40;;;6.71;76.29;98079.47;5011329;28;20516;-83
2022/03/17 07:03:20;;;;;;;42.05;28.83;;;7.80;94.40;;;6.75;76.35;98075.41;5028764;28;20484;-83
2022/03/17 07:05:46;;;;;;;35.20;26.48;;;7.90;94.40;;;6.80;76.32;98089.56;5013806;28;20408;-83
2022/03/17 07:08:12;;;;;;;36.93;26.47;;;7.90;94.40;;;6.84;76.25;98074.94;5011620;28;20520;-82
2022/03/17 07:10:38;;;;;;;41.42;28.73;;;8.00;94.50;;;6.90;76.41;98084.66;5012916;28;20412;-82
2022/03/17 07:13:04;;;;;;;41.92;26.77;;;8.00;94.50;;;6.97;76.24;98087.25;5012358;28;20417;-82
2022/03/17 07:15:31;;;;;;;37.73;26.70;;;8.10;94.40;;;7.02;76.33;98089.25;5013730;28;20425;-82
2022/03/17 07:17:57;;;;;;;37.20;25.88;;;8.10;94.50;;;7.07;76.49;98099.97;5013791;28;20401;-82
2022/03/17 07:20:23;;;;;;;37.65;26.05;;;8.10;94.50;;;7.12;76.67;98097.50;5013244;28;20420;-82
2022/03/17 07:22:50;;;;;;;36.38;25.27;;;8.20;94.60;;;7.17;76.75;98108.19;5011071;28;20466;-82
2022/03/17 07:25:18;;;;;;;40.83;28.45;;;8.20;94.60;;;7.23;76.96;98109.97;5013643;28;20405;-82
2022/03/17 07:27:46;;;;;;;40.92;28.67;;;8.30;94.70;;;7.28;76.95;98113.59;5012453;28;20412;-82
2022/03/17 07:30:19;;;;;;;39.05;27.85;;;8.30;94.80;;;7.36;77.04;98109.91;5013186;28;20432;-82
2022/03/17 07:32:48;;;;;;;37.35;27.35;;;8.40;94.80;;;7.43;77.14;98108.03;5013738;28;20911;-82
2022/03/17 07:35:15;;;;;;;33.00;24.45;;;8.50;94.90;;;7.51;77.03;98117.50;5016711;28;20408;-82
2022/03/17 07:37:41;;;;;;;42.88;29.08;;;8.60;94.90;;;7.59;77.01;98122.53;5021687;28;20419;-81
2022/03/17 07:40:08;;;;;;;41.40;29.20;;;8.60;94.90;;;7.65;76.92;98122.47;5008236;28;20953;-82
2022/03/17 07:42:35;;;;;;;39.22;27.60;;;8.70;94.80;;;7.71;76.94;98126.88;5010818;28;20489;-83
2022/03/17 07:45:01;;;;;;;38.13;27.20;;;8.80;94.80;;;7.78;76.85;98132.09;5010234;28;20417;-78
2022/03/17 07:47:28;;;;;;;39.85;27.67;;;8.80;94.80;;;7.84;76.92;98130.44;5007029;28;20974;-80
2022/03/17 07:49:55;;;;;;;38.42;26.73;;;8.90;94.80;;;7.91;77.04;98133.81;5010792;28;20782;-82
2022/03/17 07:52:21;;;;;;;41.70;29.17;;;8.90;94.80;;;7.96;76.75;98128.72;5010982;28;20920;-79
2022/03/17 07:54:47;;;;;;;41.30;29.60;;;9.00;94.70;;;7.97;76.29;98131.13;5010615;28;20423;-85
2022/03/17 07:57:14;;;;;;;57.33;39.00;;;9.00;94.50;;;7.90;74.61;98140.09;5011815;28;20500;-82
2022/03/17 07:59:41;;;;;;;47.20;33.77;;;8.90;93.20;;;7.97;75.37;98135.63;5012824;28;20522;-84
2022/03/17 08:02:07;;;;;;;51.47;35.75;;;9.00;93.90;;;7.97;74.97;98136.38;5011112;28;20417;-83
2022/03/17 08:04:34;;;;;;;52.47;37.37;;;9.00;93.60;;;7.97;74.53;98143.53;5012861;28;20815;-83
2022/03/17 08:07:03;;;;;;;49.33;35.53;;;9.00;93.50;;;7.94;74.11;98150.03;5015147;28;20409;-86
2022/03/17 08:09:29;;;;;;;49.97;36.03;;;9.00;93.20;;;7.93;74.08;98153.69;5012635;28;20486;-76
2022/03/17 08:11:56;;;;;;;48.40;33.33;;;9.00;93.30;;;7.94;74.13;98157.94;5008949;28;20429;-76
2022/03/17 08:14:22;;;;;;;40.40;29.20;;;9.00;93.30;;;8.00;74.28;98159.69;5012150;28;20405;-77
2022/03/17 08:16:48;;;;;;;40.45;27.73;;;9.10;93.50;;;8.07;74.56;98155.19;5012213;28;20412;-76
2022/03/17 08:19:14;;;;;;;35.80;26.50;;;9.10;93.50;;;8.13;74.51;98159.59;5012133;28;21033;-76
2022/03/17 08:21:41;;;;;;;37.58;27.23;;;9.20;93.60;;;8.20;74.73;98164.78;5011401;28;20404;-77
2022/03/17 08:24:09;;;;;;;35.93;25.70;;;9.20;93.50;;;8.25;74.31;98167.59;5012289;28;20464;-77
2022/03/17 08:26:37;;;;;;;43.72;32.00;;;9.30;93.50;;;8.28;73.91;98161.06;5012339;28;20424;-76
2022/03/17 08:29:04;;;;;;;46.20;31.50;;;9.30;93.10;;;8.30;73.79;98165.13;5011996;28;20428;-76
2022/03/17 08:31:31;;;;;;;49.88;34.45;;;9.30;93.00;;;8.29;73.05;98174.06;5009220;28;20420;-85
2022/03/17 08:33:59;;;;;;;57.58;37.38;;;9.30;92.60;;;8.24;72.30;98170.47;5011885;28;20945;-83
2022/03/17 08:36:26;;;;;;;45.05;32.88;;;9.20;92.20;;;8.27;72.86;98170.03;4992600;28;20430;-80
2022/03/17 08:38:53;;;;;;;44.40;30.53;;;9.30;92.50;;;8.34;73.15;98176.09;4992317;28;20414;-81
2022/03/17 08:41:21;;;;;;;36.55;27.75;;;9.30;92.70;;;8.39;72.98;98170.97;4992214;28;20407;-75
2022/03/17 08:43:47;;;;;;;45.90;32.72;;;9.40;92.70;;;8.38;72.36;98174.63;5007432;28;20406;-80
2022/03/17 08:51:42;;;;;;;42.23;30.33;;;9.40;92.20;;;8.49;72.33;98182.59;5010232;28;20511;-83
2022/03/17 08:54:10;;;;;;;43.60;30.80;;;9.50;92.30;;;8.52;72.38;98181.38;5007941;28;20424;-84
2022/03/17 08:56:38;;;;;;;40.70;29.30;;;9.50;92.20;;;8.56;72.14;98182.56;5016556;28;20416;-84
2022/03/17 08:59:06;;;;;;;37.53;27.90;;;9.60;92.20;;;8.62;72.37;98184.31;5012508;28;20910;-81
2022/03/17 09:01:32;;;;;;;37.78;26.95;;;9.60;92.20;;;8.70;72.06;98191.16;5010020;28;20440;-79
2022/03/17 09:04:00;;;;;;;44.50;32.63;;;9.70;92.20;;;8.73;71.44;98195.97;5011702;28;20420;-81
2022/03/17 09:06:28;;;;;;;47.37;31.03;;;9.70;91.80;;;8.79;71.26;98197.75;5014966;28;20459;-93
2022/03/17 09:08:54;;;;;;;43.17;30.57;;;9.80;91.80;;;8.80;71.14;98194.06;5011918;28;20404;-81
2022/03/17 09:11:20;;;;;;;42.75;30.55;;;9.80;91.60;;;8.85;70.99;98196.88;5009532;28;20420;-86
2022/03/17 09:13:49;;;;;;;56.25;36.55;;;9.80;91.40;;;8.84;70.28;98198.72;5016644;28;20886;-82
2022/03/17 09:16:15;;;;;;;44.95;31.67;;;9.90;91.10;;;8.93;70.46;98201.88;5005007;28;20416;-77
2022/03/17 09:18:42;;;;;;;50.45;35.67;;;9.90;91.30;;;8.90;69.95;98202.28;5010940;28;20411;-82
2022/03/17 09:21:08;;;;;;;42.38;30.40;;;9.90;90.80;;;8.98;69.91;98199.38;5010571;28;20781;-79
2022/03/17 09:23:34;;;;;;;56.65;34.35;;;9.90;91.10;;;9.04;69.80;98200.31;5009937;28;20970;-81
2022/03/17 09:26:00;;;;;;;40.47;29.58;;;10.00;90.80;;;9.15;69.94;98194.31;5010251;28;20401;-85
2022/03/17 09:28:27;;;;;;;46.90;32.17;;;10.10;90.90;;;9.17;69.31;98197.53;5011485;28;20412;-80
2022/03/17 09:30:55;;;;;;;50.60;34.47;;;10.10;90.70;;;9.17;69.38;98193.03;5008845;28;20910;-82
2022/03/17 09:33:25;;;;;;;45.05;30.95;;;10.20;90.30;;;9.23;69.00;98194.00;5010784;28;20397;-76
2022/03/17 09:35:56;;;;;;;48.75;34.92;;;10.20;90.50;;;9.25;68.81;98197.22;5010700;28;20405;-77
2022/03/17 09:38:23;;;;;;;42.40;30.23;;;10.20;90.20;;;9.36;68.99;98203.59;5009614;28;20445;-77
2022/03/17 09:40:49;;;;;;;40.03;28.05;;;10.30;90.50;;;9.43;69.02;98194.53;5010071;28;20423;-76
2022/03/17 09:43:28;;;;;;;39.23;28.37;;;10.40;90.50;;;9.54;68.99;98187.69;5010747;28;20467;-76
2022/03/17 09:45:58;;;;;;;39.33;27.67;;;10.50;90.50;;;9.64;68.66;98195.88;5010749;28;20504;-77
2022/03/17 09:48:26;;;;;;;34.33;25.75;;;10.60;90.40;;;9.74;68.64;98196.16;5008989;28;20504;-76
2022/03/17 09:50:57;;;;;;;31.70;23.00;;;10.70;90.30;;;9.85;68.61;98190.06;5010050;28;20874;-76
2022/03/17 09:53:24;;;;;;;28.58;20.33;;;10.80;90.30;;;9.96;68.53;98191.16;5010737;28;20440;-84
2022/03/17 09:55:51;;;;;;;26.95;20.05;;;10.90;90.30;;;10.07;68.51;98193.03;5011051;28;20401;-83
2022/03/17 09:58:18;;;;;;;27.23;20.55;;;11.00;90.20;;;10.18;68.37;98194.09;5009716;28;20459;-80
2022/03/17 10:00:47;;;;;;;27.00;19.85;;;11.10;90.20;;;10.26;68.28;98205.13;5010990;28;20508;-83
2022/03/17 10:03:16;;;;;;;29.77;21.00;;;11.20;90.10;;;10.35;68.35;98209.06;5001578;28;20409;-83
2022/03/17 10:05:45;;;;;;;28.33;21.00;;;11.30;90.10;;;10.43;68.44;98206.09;5010992;28;20408;-79
2022/03/17 10:08:11;;;;;;;25.73;19.55;;;11.30;90.00;;;10.50;68.27;98213.09;5009974;28;20786;-82
2022/03/17 10:10:37;;;;;;;28.42;20.40;;;11.40;90.00;;;10.59;68.11;98214.38;5007994;28;20845;-84
2022/03/17 10:13:05;;;;;;;25.05;19.02;;;11.50;90.30;;;10.66;68.05;98212.41;5010839;28;20419;-82
2022/03/17 10:15:31;;;;;;;25.40;18.80;;;11.60;90.00;;;10.75;68.05;98218.97;5010876;28;20415;-83
2022/03/17 10:17:57;;;;;;;26.40;19.45;;;11.60;89.90;;;10.82;67.95;98211.72;5012465;28;20405;-85
2022/03/17 10:20:26;;;;;;;27.25;20.23;;;11.70;89.70;;;10.88;67.81;98215.28;5013026;28;22154;-87
2022/03/17 10:22:54;;;;;;;26.93;19.83;;;11.70;89.50;;;10.95;67.85;98216.75;5013638;28;20441;-86
2022/03/17 10:25:23;;;;;;;27.55;19.90;;;11.80;90.10;;;11.03;67.82;98223.53;5013876;28;20410;-87
2022/03/17 10:27:50;;;;;;;26.35;19.50;;;11.90;89.40;;;11.10;67.65;98224.22;5014370;28;20678;-78